Time;durP1;ratioP1;P1;durP2;ratioP2;P2;SDS_P1;SDS_P2;PMS_P1;PMS_P2;Temp;Humidity;BMP_temperature;BMP_pressure;BME280_temperature;BME280_humidity;BME280_pressure;Samples;Min_cycle;Max_cycle;Signal;HPM_P1;HPM_P2
2022/05/10 00:00:19;;;;;;;26.65;17.25;;;;;;;16.15;61.01;101914.38;5033793;28;20021;-53
2022/05/10 00:02:51;;;;;;;25.75;17.55;;;;;;;16.16;61.03;101924.38;5033396;28;20032;-52
2022/05/10 00:05:24;;;;;;;26.33;17.30;;;;;;;16.09;61.55;101915.63;5033647;28;20083;-53
2022/05/10 00:07:50;;;;;;;29.48;17.55;;;;;;;16.04;61.28;101920.22;5034019;28;20029;-52
2022/05/10 00:10:15;;;;;;;26.23;18.25;;;;;;;16.04;61.46;101919.38;5032404;28;20384;-53
2022/05/10 00:12:40;;;;;;;27.17;18.75;;;;;;;15.98;61.53;101918.69;5032332;28;20029;-52
2022/05/10 00:15:06;;;;;;;26.05;18.23;;;;;;;15.95;61.88;101901.75;5033680;28;20029;-53
2022/05/10 00:17:40;;;;;;;26.83;18.70;;;;;;;15.89;61.83;101907.47;5032427;28;20056;-56
2022/05/10 00:20:13;;;;;;;27.45;19.10;;;;;;;15.78;62.56;101889.28;5033345;28;20522;-55
2022/05/10 00:22:39;;;;;;;25.38;19.15;;;;;;;15.82;62.41;101897.84;5033863;28;20033;-55
2022/05/10 00:25:07;;;;;;;27.35;19.25;;;;;;;15.77;62.44;101889.63;5033569;28;20095;-56
2022/05/10 00:27:33;;;;;;;26.17;18.42;;;;;;;15.73;62.74;101895.81;5033424;28;20038;-55
2022/05/10 00:29:59;;;;;;;28.65;18.83;;;;;;;15.70;63.10;101892.84;5035533;28;20176;-55
2022/05/10 00:32:28;;;;;;;27.15;18.58;;;;;;;15.59;63.09;101886.66;5043737;28;20451;-57
2022/05/10 00:34:54;;;;;;;26.77;18.63;;;;;;;15.60;63.73;101893.88;5033437;28;20025;-57
2022/05/10 00:37:22;;;;;;;26.20;19.25;;;;;;;15.51;63.56;101885.47;5033272;28;20033;-57
2022/05/10 00:39:47;;;;;;;29.85;20.23;;;;;;;15.51;63.59;101885.47;5033254;28;20021;-55
2022/05/10 00:42:18;;;;;;;28.45;19.50;;;;;;;15.47;63.72;101897.56;5033316;28;20417;-56
2022/05/10 00:44:51;;;;;;;28.20;19.52;;;;;;;15.42;63.89;101898.50;5033518;28;20036;-56
2022/05/10 00:47:21;;;;;;;28.27;20.25;;;;;;;15.39;63.75;101888.81;5033298;28;20511;-55
2022/05/10 00:49:56;;;;;;;27.20;19.98;;;;;;;15.26;64.01;101882.09;5031813;28;20112;-55
2022/05/10 00:52:29;;;;;;;29.45;20.40;;;;;;;15.27;64.20;101883.75;5033113;28;20527;-57
2022/05/10 00:55:01;;;;;;;29.30;19.08;;;;;;;15.24;64.29;101876.03;5033408;28;20029;-54
2022/05/10 00:57:44;;;;;;;27.58;19.73;;;;;;;15.18;63.39;101870.88;5033132;28;20040;-54
2022/05/10 01:00:14;;;;;;;27.00;19.30;;;;;;;15.17;64.32;101874.81;5033107;28;20350;-56
2022/05/10 01:02:46;;;;;;;29.63;20.25;;;;;;;15.13;64.55;101869.03;5032609;28;20408;-54
2022/05/10 01:05:36;;;;;;;28.25;19.75;;;;;;;15.09;64.15;101876.34;5033111;28;20025;-54
2022/05/10 01:08:05;;;;;;;27.13;19.30;;;;;;;15.01;65.15;101872.34;5032891;28;20026;-54
2022/05/10 01:10:39;;;;;;;26.63;19.83;;;;;;;14.97;64.29;101876.88;5032908;28;20108;-54
2022/05/10 01:13:16;;;;;;;28.50;19.73;;;;;;;14.90;65.19;101863.38;5032873;28;20548;-55
2022/05/10 01:15:53;;;;;;;28.25;20.30;;;;;;;14.77;65.73;101853.09;5030896;28;20045;-54
2022/05/10 01:18:22;;;;;;;29.35;20.55;;;;;;;14.71;66.17;101854.31;5032847;28;20107;-53
2022/05/10 01:20:50;;;;;;;28.13;20.00;;;;;;;14.62;66.69;101856.97;5032545;28;20021;-53
2022/05/10 01:23:45;;;;;;;28.30;20.52;;;;;;;14.63;65.87;101859.44;5032500;28;20034;-55
2022/05/10 01:26:23;;;;;;;29.30;21.02;;;;;;;14.56;67.41;101859.03;5032514;28;20485;-55
2022/05/10 01:28:52;;;;;;;29.15;20.70;;;;;;;14.47;67.66;101846.97;5032582;28;20484;-55
2022/05/10 01:31:34;;;;;;;28.70;20.42;;;;;;;14.43;67.56;101849.53;5031334;28;20025;-54
2022/05/10 01:34:07;;;;;;;28.77;21.13;;;;;;;14.42;68.24;101850.66;5032784;28;20473;-54
2022/05/10 01:36:44;;;;;;;30.65;21.25;;;;;;;14.39;67.61;101844.91;5032500;28;20078;-55
2022/05/10 01:39:35;;;;;;;29.88;22.30;;;;;;;14.31;67.53;101838.88;5032766;28;20037;-52
2022/05/10 01:42:07;;;;;;;29.15;21.52;;;;;;;14.22;68.97;101837.13;5032415;28;20064;-55
2022/05/10 01:44:52;;;;;;;29.80;22.10;;;;;;;14.17;68.88;101835.28;5032514;28;20041;-53
2022/05/10 01:47:26;;;;;;;32.63;22.33;;;;;;;14.13;69.21;101843.41;5032150;28;20595;-52
2022/05/10 01:50:13;;;;;;;29.00;21.98;;;;;;;14.07;68.85;101829.88;5032265;28;20038;-54
2022/05/10 01:52:49;;;;;;;30.55;22.33;;;;;;;14.03;68.76;101818.53;5030793;28;20061;-54
2022/05/10 01:55:20;;;;;;;29.38;23.17;;;;;;;14.04;69.77;101815.44;5031125;28;20017;-56
2022/05/10 01:57:46;;;;;;;29.30;22.25;;;;;;;14.01;69.16;101821.66;5032871;28;20051;-54
2022/05/10 02:00:19;;;;;;;32.00;23.63;;;;;;;13.92;69.48;101803.16;5032297;28;20464;-54
2022/05/10 02:02:54;;;;;;;27.60;22.38;;;;;;;13.91;69.54;101815.41;5032228;28;20033;-53
2022/05/10 02:05:27;;;;;;;29.25;22.70;;;;;;;13.85;70.57;101820.25;5032511;28;20045;-51
2022/05/10 02:08:00;;;;;;;33.05;24.08;;;;;;;13.91;69.82;101819.03;5032226;28;20399;-53
2022/05/10 02:10:34;;;;;;;29.40;22.85;;;;;;;13.88;70.09;101814.91;5032063;28;20021;-50
2022/05/10 02:13:10;;;;;;;30.08;22.77;;;;;;;13.78;70.63;101800.34;5032030;28;20118;-51
2022/05/10 02:15:59;;;;;;;31.05;23.05;;;;;;;13.84;69.27;101808.31;5031976;28;20033;-50
2022/05/10 02:18:33;;;;;;;31.75;23.77;;;;;;;13.80;70.47;101800.88;5032135;28;20030;-52
2022/05/10 02:21:09;;;;;;;31.55;23.90;;;;;;;13.81;70.32;101810.88;5032369;28;20033;-53
2022/05/10 02:23:59;;;;;;;30.35;23.80;;;;;;;13.83;70.22;101801.09;5032041;28;20033;-52
2022/05/10 02:26:32;;;;;;;32.13;24.02;;;;;;;13.76;71.49;101803.44;5034234;28;20099;-53
2022/05/10 02:29:15;;;;;;;32.88;24.40;;;;;;;13.75;71.52;101800.94;5035721;28;20113;-54
2022/05/10 02:34:42;;;;;;;30.40;23.58;;;;;;;13.73;71.12;101790.13;5036069;28;20197;-54
2022/05/10 02:37:07;;;;;;;29.83;23.15;;;;;;;13.76;71.56;101786.75;5035542;28;20496;-54
2022/05/10 02:39:32;;;;;;;30.48;23.90;;;;;;;13.77;71.19;101782.00;5035476;28;20040;-55
2022/05/10 02:41:59;;;;;;;30.25;24.40;;;;;;;13.78;71.20;101775.31;5035371;28;20080;-54
2022/05/10 02:44:25;;;;;;;31.45;24.75;;;;;;;13.73;72.04;101777.06;5035445;28;20064;-52
2022/05/10 02:46:50;;;;;;;30.40;24.13;;;;;;;13.72;72.08;101778.19;5035418;28;20052;-54
2022/05/10 02:49:17;;;;;;;31.08;24.98;;;;;;;13.70;72.20;101772.13;5035267;28;20034;-55
2022/05/10 02:51:42;;;;;;;32.85;24.60;;;;;;;13.67;72.80;101772.72;5035309;28;20104;-55
2022/05/10 02:54:08;;;;;;;30.83;25.08;;;;;;;13.69;73.03;101772.44;5035249;28;20499;-55
2022/05/10 02:56:33;;;;;;;32.58;25.70;;;;;;;13.67;73.02;101769.94;5035347;28;20070;-56
2022/05/10 02:59:05;;;;;;;33.15;25.35;;;;;;;13.68;72.66;101759.66;5035044;28;20376;-55
2022/05/10 03:01:44;;;;;;;31.60;24.83;;;;;;;13.65;73.16;101763.03;5034918;28;20036;-55
2022/05/10 03:04:11;;;;;;;30.83;25.38;;;;;;;13.62;73.47;101758.06;5035100;28;20030;-55
2022/05/10 03:06:37;;;;;;;34.13;24.95;;;;;;;13.59;73.26;101761.47;5035064;28;20029;-56
2022/05/10 03:09:04;;;;;;;32.50;25.40;;;;;;;13.59;73.49;101756.75;5034891;28;20036;-54
2022/05/10 03:11:29;;;;;;;33.33;25.02;;;;;;;13.62;72.92;101755.28;5034928;28;20536;-57
2022/05/10 03:13:55;;;;;;;31.58;25.00;;;;;;;13.59;72.60;101750.38;5034749;28;20056;-54
2022/05/10 03:16:23;;;;;;;33.30;25.13;;;;;;;13.60;73.22;101752.81;5034960;28;20036;-53
2022/05/10 03:18:49;;;;;;;31.90;24.98;;;;;;;13.57;73.63;101756.22;5034899;28;20076;-53
2022/05/10 03:21:15;;;;;;;33.25;25.75;;;;;;;13.60;73.99;101754.78;5034896;28;20494;-53
2022/05/10 03:23:40;;;;;;;32.33;24.33;;;;;;;13.66;73.12;101750.78;5034629;28;20112;-51
2022/05/10 03:26:06;;;;;;;35.05;25.05;;;;;;;13.65;73.37;101743.56;5034539;28;20132;-53
2022/05/10 03:28:32;;;;;;;32.13;24.23;;;;;;;13.66;73.36;101743.25;5033286;28;20108;-53
2022/05/10 03:30:57;;;;;;;32.55;25.15;;;;;;;13.68;72.48;101737.41;5034522;28;20017;-50
2022/05/10 03:33:23;;;;;;;32.17;25.20;;;;;;;13.65;73.03;101736.03;5034392;28;20069;-54
2022/05/10 03:35:48;;;;;;;35.55;25.60;;;;;;;13.67;72.83;101739.34;5034377;28;20038;-53
2022/05/10 03:38:13;;;;;;;32.85;25.23;;;;;;;13.68;73.17;101741.00;5033356;28;20025;-54
2022/05/10 03:40:39;;;;;;;32.03;24.48;;;;;;;13.71;72.95;101737.63;5034229;28;20063;-54
2022/05/10 03:43:09;;;;;;;34.10;25.17;;;;;;;13.69;73.03;101733.50;5034135;28;20061;-54
2022/05/10 03:45:35;;;;;;;32.47;24.88;;;;;;;13.68;73.08;101734.63;5049527;28;20033;-54
2022/05/10 03:48:01;;;;;;;33.45;25.45;;;;;;;13.68;72.81;101734.63;5034252;28;20035;-54
2022/05/10 03:50:26;;;;;;;30.80;24.45;;;;;;;13.69;72.45;101730.72;5034309;28;20029;-55
2022/05/10 03:52:52;;;;;;;33.58;25.98;;;;;;;13.69;72.70;101728.75;5034167;28;20021;-55
2022/05/10 03:55:23;;;;;;;32.33;24.95;;;;;;;13.64;72.14;101714.13;5034056;28;20033;-53
2022/05/10 03:57:49;;;;;;;34.20;25.52;;;;;;;13.70;72.85;101724.00;5034046;28;20469;-55
2022/05/10 04:00:19;;;;;;;35.35;24.65;;;;;;;13.69;72.79;101722.38;5033744;28;20511;-54
2022/05/10 04:02:44;;;;;;;34.05;24.63;;;;;;;13.66;73.17;101726.56;5033917;28;20107;-54
2022/05/10 04:05:11;;;;;;;31.55;24.63;;;;;;;13.62;73.71;101719.16;5033408;28;20481;-53
2022/05/10 04:07:37;;;;;;;33.65;24.80;;;;;;;13.60;73.44;101722.25;5033591;28;20509;-53
2022/05/10 04:10:03;;;;;;;31.73;24.83;;;;;;;13.57;74.08;101729.25;5033920;28;20029;-54
2022/05/10 04:12:28;;;;;;;31.15;24.45;;;;;;;13.55;73.70;101717.59;5033499;28;20087;-54
2022/05/10 04:14:53;;;;;;;31.85;24.83;;;;;;;13.55;74.20;101722.34;5033385;28;20025;-53
2022/05/10 04:17:18;;;;;;;32.60;24.70;;;;;;;13.60;73.51;101713.09;5033446;28;20017;-54
2022/05/10 04:19:44;;;;;;;31.38;24.95;;;;;;;13.62;73.62;101714.44;5034477;28;20029;-53
2022/05/10 04:22:09;;;;;;;31.85;25.33;;;;;;;13.62;73.68;101716.38;5043588;28;20522;-54
2022/05/10 04:24:35;;;;;;;33.72;24.80;;;;;;;13.62;73.58;101722.78;5032281;28;20045;-54
2022/05/10 04:27:00;;;;;;;35.33;24.85;;;;;;;13.67;73.46;101724.63;5032427;28;20104;-54
2022/05/10 04:29:26;;;;;;;33.90;24.77;;;;;;;13.69;72.99;101722.38;5033156;28;20022;-54
2022/05/10 04:31:51;;;;;;;33.20;24.38;;;;;;;13.75;72.79;101715.59;5032955;28;20024;-57
2022/05/10 04:34:17;;;;;;;33.42;25.02;;;;;;;13.79;72.62;101716.59;5033092;28;20052;-55
2022/05/10 04:36:42;;;;;;;31.45;23.73;;;;;;;13.82;72.69;101713.22;5032940;28;20461;-54
2022/05/10 04:39:08;;;;;;;32.85;24.30;;;;;;;13.86;72.38;101714.25;5033044;28;20021;-55
2022/05/10 04:41:35;;;;;;;32.03;24.30;;;;;;;13.86;72.21;101707.88;5032995;28;20025;-54
2022/05/10 04:44:07;;;;;;;34.50;23.52;;;;;;;13.95;72.17;101714.34;5033029;28;20017;-54
2022/05/10 04:46:37;;;;;;;33.97;23.05;;;;;;;14.02;71.78;101709.25;5032759;28;20041;-52
2022/05/10 04:49:08;;;;;;;33.55;24.17;;;;;;;14.07;71.72;101708.31;5032763;28;20025;-53
2022/05/10 04:51:34;;;;;;;32.55;24.27;;;;;;;14.16;71.08;101705.63;5033104;28;20021;-55
2022/05/10 04:53:59;;;;;;;32.58;22.70;;;;;;;14.19;70.84;101705.81;5032693;28;20028;-54
2022/05/10 04:56:25;;;;;;;33.85;23.95;;;;;;;14.26;71.01;101699.03;5032805;28;20030;-55
2022/05/10 04:58:54;;;;;;;33.03;24.25;;;;;;;14.27;70.57;101701.50;5032691;28;20033;-55
2022/05/10 05:01:22;;;;;;;32.72;23.63;;;;;;;14.32;70.07;101701.38;5032827;28;20053;-56
2022/05/10 05:03:49;;;;;;;32.20;22.88;;;;;;;14.38;70.33;101699.31;5032280;28;20017;-56
2022/05/10 05:06:16;;;;;;;32.45;23.35;;;;;;;14.45;70.38;101702.47;5032476;28;20145;-56
2022/05/10 05:08:41;;;;;;;33.80;23.40;;;;;;;14.51;70.12;101703.19;5032622;28;20024;-56
2022/05/10 05:11:06;;;;;;;32.58;22.27;;;;;;;14.56;69.90;101705.88;5033899;28;20021;-56
2022/05/10 05:13:32;;;;;;;30.52;22.60;;;;;;;14.65;69.67;101705.94;5040217;28;20037;-55
2022/05/10 05:15:57;;;;;;;32.00;23.20;;;;;;;14.70;69.58;101705.88;5040711;28;20033;-55
2022/05/10 05:18:23;;;;;;;31.67;22.27;;;;;;;14.75;69.51;101700.19;5042396;28;20033;-55
2022/05/10 05:20:49;;;;;;;32.28;23.63;;;;;;;14.86;68.83;101708.31;5034838;28;20029;-55
2022/05/10 05:23:18;;;;;;;33.50;23.35;;;;;;;14.85;68.69;101704.72;5039514;28;20043;-55
2022/05/10 05:25:43;;;;;;;32.80;23.00;;;;;;;14.93;68.75;101703.13;5049959;28;20049;-55
2022/05/10 05:28:10;;;;;;;32.28;23.50;;;;;;;15.03;68.39;101711.22;5050320;28;20578;-52
2022/05/10 05:30:35;;;;;;;32.35;22.40;;;;;;;15.06;68.35;101704.22;5044664;28;20461;-54
2022/05/10 05:33:01;;;;;;;35.20;23.50;;;;;;;15.11;68.17;101707.69;5048035;28;20032;-54
2022/05/10 05:35:26;;;;;;;33.22;22.25;;;;;;;15.15;67.93;101704.28;5051267;28;20033;-55
2022/05/10 05:37:53;;;;;;;31.10;22.27;;;;;;;15.19;68.10;101710.88;5051956;28;20501;-52
2022/05/10 05:40:19;;;;;;;30.55;22.40;;;;;;;15.26;68.17;101705.69;5046255;28;20387;-51
2022/05/10 05:42:45;;;;;;;33.38;22.08;;;;;;;15.31;68.11;101713.91;5039841;28;20033;-55
2022/05/10 05:45:12;;;;;;;31.40;21.73;;;;;;;15.38;67.83;101703.16;5039244;28;20037;-55
2022/05/10 05:47:38;;;;;;;30.98;21.52;;;;;;;15.50;67.42;101698.94;5040021;28;20037;-55
2022/05/10 05:50:05;;;;;;;34.05;23.45;;;;;;;15.58;67.60;101703.75;5041231;28;20025;-56
2022/05/10 05:52:30;;;;;;;32.20;22.58;;;;;;;15.66;67.45;101697.41;5042790;28;20492;-55
2022/05/10 05:54:55;;;;;;;31.02;22.23;;;;;;;15.73;67.36;101702.50;5044997;28;20029;-56
2022/05/10 05:57:22;;;;;;;30.60;21.77;;;;;;;15.78;67.19;101704.31;5038732;28;20036;-55
2022/05/10 05:59:47;;;;;;;30.80;22.33;;;;;;;15.85;67.29;101699.16;5047302;28;20059;-56
2022/05/10 06:02:15;;;;;;;31.35;22.13;;;;;;;15.86;66.88;101692.44;5053183;28;20025;-56
2022/05/10 06:04:41;;;;;;;30.90;23.13;;;;;;;16.00;67.01;101695.94;5051334;28;20052;-55
2022/05/10 06:07:09;;;;;;;29.60;22.40;;;;;;;16.15;67.14;101691.06;5054778;28;20499;-55
2022/05/10 06:09:35;;;;;;;29.05;21.20;;;;;;;16.28;66.18;101673.34;5055509;28;20025;-54
2022/05/10 06:12:00;;;;;;;27.75;21.50;;;;;;;16.41;65.75;101679.13;5045854;28;20121;-56
2022/05/10 06:14:25;;;;;;;28.35;22.33;;;;;;;16.52;65.79;101672.91;5048259;28;20034;-56
2022/05/10 06:16:55;;;;;;;29.13;21.92;;;;;;;16.63;65.28;101678.97;5045818;28;20324;-57
2022/05/10 06:19:20;;;;;;;28.85;21.30;;;;;;;16.72;65.05;101678.19;5052584;28;20059;-56
2022/05/10 06:21:46;;;;;;;28.85;21.67;;;;;;;16.84;64.74;101683.91;5053806;28;20421;-56
2022/05/10 06:24:11;;;;;;;28.25;20.42;;;;;;;16.95;64.45;101676.88;5049331;28;20545;-57
2022/05/10 06:26:37;;;;;;;28.05;20.88;;;;;;;17.07;64.35;101681.81;5055282;28;20049;-54
2022/05/10 06:29:03;;;;;;;26.48;20.80;;;;;;;17.16;63.42;101673.41;5055020;28;20029;-57
2022/05/10 06:31:28;;;;;;;26.83;20.48;;;;;;;17.27;63.68;101677.53;5045493;28;20025;-57
2022/05/10 06:33:53;;;;;;;26.95;20.33;;;;;;;17.38;63.33;101674.38;5052994;28;20028;-57
2022/05/10 06:36:18;;;;;;;26.20;19.90;;;;;;;17.50;63.09;101682.06;5055435;28;20051;-57
2022/05/10 06:38:44;;;;;;;26.88;20.52;;;;;;;17.56;63.01;101669.53;5041740;28;20059;-56
2022/05/10 06:41:09;;;;;;;27.73;20.83;;;;;;;17.66;62.58;101671.16;5032984;28;20447;-56
2022/05/10 06:43:36;;;;;;;27.63;20.85;;;;;;;17.69;62.51;101665.72;5031091;28;20033;-57
2022/05/10 06:46:08;;;;;;;26.00;19.83;;;;;;;17.76;62.47;101667.97;5032961;28;20053;-57
2022/05/10 06:48:33;;;;;;;27.83;20.10;;;;;;;17.84;61.81;101666.31;5033004;28;20465;-57
2022/05/10 06:50:59;;;;;;;25.08;19.08;;;;;;;17.93;61.97;101665.13;5046466;28;20184;-57
2022/05/10 06:53:25;;;;;;;25.70;19.02;;;;;;;18.05;61.79;101667.22;5042234;28;20146;-57
2022/05/10 06:55:51;;;;;;;26.30;19.00;;;;;;;18.19;61.83;101661.38;5042485;28;20037;-56
2022/05/10 06:58:16;;;;;;;25.00;19.58;;;;;;;18.32;61.00;101658.69;5051615;28;20041;-57
2022/05/10 07:00:41;;;;;;;25.40;19.38;;;;;;;18.43;60.67;101653.47;5052534;28;20029;-56
2022/05/10 07:03:10;;;;;;;25.80;18.38;;;;;;;18.50;60.28;101653.75;5052341;28;20095;-55
2022/05/10 07:05:36;;;;;;;25.65;18.35;;;;;;;18.64;59.95;101650.69;5052632;28;20119;-56
2022/05/10 07:08:02;;;;;;;24.58;19.00;;;;;;;18.78;59.82;101653.19;5050665;28;20040;-56
2022/05/10 07:10:27;;;;;;;26.42;18.65;;;;;;;18.93;59.53;101648.97;5044155;28;20029;-57
2022/05/10 07:12:54;;;;;;;23.60;18.45;;;;;;;19.00;59.34;101641.66;5031428;28;20103;-56
2022/05/10 07:15:20;;;;;;;24.77;18.27;;;;;;;19.08;59.30;101648.31;5048142;28;20537;-57
2022/05/10 07:17:46;;;;;;;25.38;18.92;;;;;;;19.21;59.41;101635.19;5052041;28;20116;-56
2022/05/10 07:20:13;;;;;;;24.17;17.75;;;;;;;19.38;58.45;101638.97;5052614;28;20415;-56
2022/05/10 07:22:38;;;;;;;24.95;18.77;;;;;;;19.60;58.02;101638.50;5052317;28;20044;-56
2022/05/10 07:25:05;;;;;;;23.73;18.35;;;;;;;19.83;57.57;101631.66;5052262;28;20036;-56
2022/05/10 07:27:31;;;;;;;26.02;19.27;;;;;;;19.95;56.78;101638.13;5052207;28;20042;-56
2022/05/10 07:29:56;;;;;;;26.15;18.60;;;;;;;20.02;56.88;101634.72;5052517;28;20029;-57
2022/05/10 07:32:22;;;;;;;24.85;18.23;;;;;;;20.17;56.26;101626.72;5052551;28;20021;-57
2022/05/10 07:34:47;;;;;;;25.70;18.45;;;;;;;20.24;55.17;101636.22;5052498;28;20033;-57
2022/05/10 07:37:13;;;;;;;25.80;18.40;;;;;;;20.33;55.40;101635.25;5052144;28;20028;-56
2022/05/10 07:39:38;;;;;;;25.13;18.60;;;;;;;20.48;54.84;101619.66;5052159;28;20032;-57
2022/05/10 07:42:04;;;;;;;23.42;16.63;;;;;;;20.64;55.02;101626.16;5052168;28;20111;-57
2022/05/10 07:44:31;;;;;;;25.55;17.65;;;;;;;20.69;54.41;101636.31;5052009;28;20052;-56
2022/05/10 07:46:56;;;;;;;23.65;16.45;;;;;;;20.70;53.83;101623.91;5052047;28;20442;-57
2022/05/10 07:49:22;;;;;;;23.95;16.83;;;;;;;20.73;53.63;101620.41;5051815;28;20021;-56
2022/05/10 07:51:47;;;;;;;21.65;15.80;;;;;;;20.77;53.56;101612.91;5050133;28;20033;-57
2022/05/10 07:54:13;;;;;;;22.30;15.75;;;;;;;20.84;52.57;101618.72;5051296;28;20049;-57
2022/05/10 07:56:38;;;;;;;23.77;16.55;;;;;;;20.85;52.44;101616.75;5053900;28;20025;-57
2022/05/10 07:59:04;;;;;;;23.58;15.65;;;;;;;20.95;53.29;101615.38;5054155;28;20029;-57
2022/05/10 08:01:29;;;;;;;22.20;14.90;;;;;;;20.99;51.91;101608.69;5053817;28;20131;-57
2022/05/10 08:03:54;;;;;;;23.23;15.63;;;;;;;21.04;52.68;101611.25;5054101;28;20032;-57
2022/05/10 08:06:20;;;;;;;22.88;15.00;;;;;;;21.14;51.95;101600.66;5054099;28;20519;-57
2022/05/10 08:08:45;;;;;;;21.42;14.25;;;;;;;21.28;51.67;101608.66;5053783;28;20021;-57
2022/05/10 08:11:11;;;;;;;25.00;14.80;;;;;;;21.35;51.41;101606.81;5054002;28;20384;-57
2022/05/10 08:13:37;;;;;;;22.85;15.57;;;;;;;21.42;50.77;101605.41;5053629;28;20087;-57
2022/05/10 08:16:03;;;;;;;22.38;14.10;;;;;;;21.49;50.66;101603.56;5053274;28;20112;-57
2022/05/10 08:18:29;;;;;;;22.15;13.85;;;;;;;21.60;50.72;101603.03;5053420;28;20116;-57
2022/05/10 08:20:57;;;;;;;20.85;14.88;;;;;;;21.77;50.68;101611.13;5053555;28;20032;-58
2022/05/10 08:23:26;;;;;;;22.08;13.60;;;;;;;21.85;49.74;101609.28;5053097;28;20021;-57
2022/05/10 08:25:54;;;;;;;20.77;13.63;;;;;;;21.88;49.44;101610.56;5052915;28;20049;-57
2022/05/10 08:28:20;;;;;;;20.95;13.23;;;;;;;21.87;49.18;101606.94;5053181;28;20049;-58
2022/05/10 08:30:46;;;;;;;20.13;13.57;;;;;;;21.77;49.41;101610.31;5053112;28;20064;-57
2022/05/10 08:33:17;;;;;;;20.02;13.13;;;;;;;21.73;49.88;101600.94;5052636;28;20099;-57
2022/05/10 08:35:42;;;;;;;21.20;14.40;;;;;;;21.68;49.22;101601.25;5053468;28;20029;-57
2022/05/10 08:38:08;;;;;;;20.02;13.43;;;;;;;21.60;48.97;101606.69;5053173;28;20032;-57
2022/05/10 08:40:42;;;;;;;22.35;13.68;;;;;;;21.49;49.96;101597.13;5053440;28;20083;-58
2022/05/10 08:43:12;;;;;;;21.27;13.32;;;;;;;21.50;49.85;101591.13;5053312;28;20495;-57
2022/05/10 08:45:41;;;;;;;21.70;13.00;;;;;;;21.51;49.24;101595.56;5053085;28;20039;-57
2022/05/10 08:48:06;;;;;;;20.42;12.73;;;;;;;21.57;48.96;101590.50;5052924;28;20040;-57
2022/05/10 08:50:32;;;;;;;19.98;12.90;;;;;;;21.57;48.14;101593.31;5053204;28;20032;-57
2022/05/10 08:52:57;;;;;;;22.00;12.95;;;;;;;21.65;48.49;101592.31;5053031;28;20047;-57
2022/05/10 08:55:30;;;;;;;20.88;13.02;;;;;;;21.70;48.79;101584.81;5053052;28;20025;-58
2022/05/10 08:58:20;;;;;;;19.77;12.63;;;;;;;21.79;47.81;101585.41;5053192;28;20044;-58
2022/05/10 09:00:50;;;;;;;19.58;12.15;;;;;;;21.76;47.29;101570.09;5053118;28;20384;-57
2022/05/10 09:03:41;;;;;;;20.63;12.25;;;;;;;21.96;47.38;101579.38;5053120;28;20036;-57
2022/05/10 09:06:17;;;;;;;22.35;13.02;;;;;;;22.08;47.00;101591.72;5052733;28;20027;-58
2022/05/10 09:08:51;;;;;;;20.02;12.10;;;;;;;22.19;46.85;101575.88;5052871;28;20088;-57
2022/05/10 09:11:18;;;;;;;21.20;13.43;;;;;;;22.38;46.04;101579.91;5052713;28;20033;-57
2022/05/10 09:13:45;;;;;;;19.83;11.75;;;;;;;22.44;45.57;101576.44;5052462;28;20368;-57
2022/05/10 09:16:12;;;;;;;21.17;12.23;;;;;;;22.50;45.70;101568.50;5052872;28;20017;-57
2022/05/10 09:18:50;;;;;;;19.00;12.20;;;;;;;22.67;45.85;101569.25;5052917;28;20108;-57
2022/05/10 09:21:27;;;;;;;19.60;11.52;;;;;;;22.70;44.67;101560.84;5053321;28;20044;-57
2022/05/10 09:24:17;;;;;;;19.55;11.52;;;;;;;22.86;45.13;101565.56;5052877;28;20024;-57
2022/05/10 09:26:46;;;;;;;19.25;11.60;;;;;;;23.07;44.39;101559.50;5052786;28;20076;-56
2022/05/10 09:29:39;;;;;;;19.60;12.10;;;;;;;23.27;44.59;101568.78;5053197;28;20116;-57
2022/05/10 09:35:14;;;;;;;19.70;11.27;;;;;;;23.36;42.69;101552.41;5052558;28;20130;-57
2022/05/10 09:37:45;;;;;;;20.20;11.55;;;;;;;23.29;43.13;101557.09;5052611;28;20107;-57
2022/05/10 09:40:34;;;;;;;22.20;11.73;;;;;;;23.34;43.14;101553.94;5052936;28;20111;-57
2022/05/10 09:43:15;;;;;;;20.13;12.00;;;;;;;23.32;43.11;101562.00;5053061;28;20037;-57
2022/05/10 09:45:40;;;;;;;18.40;11.52;;;;;;;23.22;42.84;101557.78;5051750;28;20364;-57
2022/05/10 09:48:08;;;;;;;21.55;12.35;;;;;;;23.20;42.90;101551.69;5050229;28;20028;-56
2022/05/10 09:51:17;;;;;;;20.58;11.65;;;;;;;23.24;43.77;101551.78;5031209;28;20034;-55
2022/05/10 09:53:42;;;;;;;19.90;11.65;;;;;;;23.30;43.70;101542.59;5030968;28;20037;-57
2022/05/10 09:56:23;;;;;;;23.50;11.60;;;;;;;23.34;43.02;101543.50;5031252;28;20082;-58
2022/05/10 09:59:01;;;;;;;21.80;12.20;;;;;;;23.39;43.56;101536.72;5031170;28;20034;-56
2022/05/10 10:01:58;;;;;;;21.15;11.90;;;;;;;23.47;44.00;101551.78;5031102;28;20021;-57
2022/05/10 10:04:26;;;;;;;23.92;12.40;;;;;;;23.51;43.80;101530.03;5026090;28;20046;-59
2022/05/10 10:07:15;;;;;;;21.08;11.80;;;;;;;23.60;43.29;101541.06;5030119;28;20033;-61
2022/05/10 10:10:00;;;;;;;19.60;11.88;;;;;;;23.58;42.75;101527.31;5030017;28;20037;-58
2022/05/10 10:12:31;;;;;;;19.95;11.95;;;;;;;23.54;42.89;101534.94;5030140;28;20037;-56
2022/05/10 10:14:57;;;;;;;21.02;12.15;;;;;;;23.43;42.80;101522.66;5030515;28;20121;-56
2022/05/10 10:17:28;;;;;;;22.95;13.23;;;;;;;23.33;43.23;101527.75;5051275;28;20041;-58
2022/05/10 10:20:20;;;;;;;21.30;11.68;;;;;;;23.35;43.82;101528.19;5052020;28;20051;-56
2022/05/10 10:22:52;;;;;;;35.60;12.43;;;;;;;23.30;43.90;101531.31;5052073;28;20443;-57
2022/05/10 10:25:24;;;;;;;24.25;12.05;;;;;;;23.55;43.85;101519.63;5051853;28;20029;-57
2022/05/10 10:27:59;;;;;;;20.13;11.00;;;;;;;23.87;42.33;101515.63;5052073;28;20033;-57
2022/05/10 10:30:34;;;;;;;20.92;11.73;;;;;;;24.25;42.06;101514.56;5038150;28;20131;-57
2022/05/10 10:33:07;;;;;;;20.10;11.10;;;;;;;24.58;41.84;101507.28;5032166;28;20033;-56
2022/05/10 10:35:40;;;;;;;22.52;11.55;;;;;;;24.82;41.31;101502.28;5032185;28;20032;-58
2022/05/10 10:38:17;;;;;;;21.88;11.82;;;;;;;24.99;40.60;101500.00;5030794;28;20124;-58
2022/05/10 10:40:47;;;;;;;20.90;10.82;;;;;;;25.21;40.26;101492.53;5030793;28;20540;-57
2022/05/10 10:43:13;;;;;;;20.27;11.32;;;;;;;25.37;38.99;101501.53;5032161;28;20033;-56
2022/05/10 10:45:44;;;;;;;21.27;11.00;;;;;;;25.48;38.29;101492.34;5032187;28;20109;-56
2022/05/10 10:48:28;;;;;;;21.02;10.10;;;;;;;25.37;37.23;101503.56;5035209;28;20032;-58
2022/05/10 10:50:54;;;;;;;;;;;;;;;25.37;37.01;101509.22;5036323;28;20026;-57
2022/05/10 10:53:22;;;;;;;22.00;10.23;;;;;;;25.14;37.02;101496.09;5035528;28;19916;-57
2022/05/10 10:55:59;;;;;;;22.50;10.65;;;;;;;25.00;37.43;101493.13;5035427;28;20079;-58
2022/05/10 10:58:46;;;;;;;18.30;10.10;;;;;;;24.97;37.28;101508.09;5034218;28;20052;-58
2022/05/10 11:01:33;;;;;;;20.48;10.50;;;;;;;24.98;37.81;101482.22;5035547;28;20028;-57
2022/05/10 11:04:25;;;;;;;18.65;9.98;;;;;;;25.27;37.90;101488.13;5035789;28;20084;-57
2022/05/10 11:06:52;;;;;;;18.77;10.38;;;;;;;25.31;37.63;101486.13;5035335;28;20090;-57
2022/05/10 11:09:32;;;;;;;20.48;10.77;;;;;;;25.27;37.52;101481.66;5035462;28;20033;-57
2022/05/10 11:12:08;;;;;;;26.20;11.02;;;;;;;25.43;37.57;101482.19;5035170;28;20021;-58
2022/05/10 11:14:54;;;;;;;21.27;10.40;;;;;;;25.41;37.75;101476.13;5035434;28;20451;-57
2022/05/10 11:17:28;;;;;;;21.92;11.00;;;;;;;25.50;37.23;101487.91;5035187;28;20033;-57
2022/05/10 11:20:11;;;;;;;19.00;10.68;;;;;;;25.58;37.21;101476.63;5034902;28;20053;-57
2022/05/10 11:22:53;;;;;;;;;;;;;;;25.72;37.54;101470.22;5033411;28;20472;-58
2022/05/10 11:25:34;;;;;;;21.90;10.75;;;;;;;25.74;37.08;101473.47;5032743;28;19916;-57
2022/05/10 11:28:26;;;;;;;20.30;11.32;;;;;;;25.78;37.13;101477.16;5034952;28;20112;-58